sensor_id;sensor_type;location;lat;lon;timestamp;P1;durP1;ratioP1;P2;durP2;ratioP2
41167;SDS011;26906;45.658;9.272;2022-07-29T04:33:42;3.30;;;1.80;;
41167;SDS011;26906;45.658;9.272;2022-07-29T04:36:08;3.92;;;1.88;;
41167;SDS011;26906;45.658;9.272;2022-07-29T04:38:36;3.70;;;1.90;;
41167;SDS011;26906;45.658;9.272;2022-07-29T04:41:02;3.95;;;2.45;;
41167;SDS011;26906;45.658;9.272;2022-07-29T04:43:27;4.78;;;2.00;;
41167;SDS011;26906;45.658;9.272;2022-07-29T04:45:53;4.15;;;2.50;;
41167;SDS011;26906;45.658;9.272;2022-07-29T04:48:19;3.10;;;2.40;;
41167;SDS011;26906;45.658;9.272;2022-07-29T04:50:45;2.70;;;2.38;;
41167;SDS011;26906;45.658;9.272;2022-07-29T04:53:10;3.28;;;2.75;;
41167;SDS011;26906;45.658;9.272;2022-07-29T04:55:36;4.05;;;2.50;;
41167;SDS011;26906;45.658;9.272;2022-07-29T04:58:02;5.32;;;2.65;;
41167;SDS011;26906;45.658;9.272;2022-07-29T05:00:27;4.70;;;2.70;;
41167;SDS011;26906;45.658;9.272;2022-07-29T05:02:53;3.30;;;2.50;;
41167;SDS011;26906;45.658;9.272;2022-07-29T05:05:19;6.85;;;2.90;;
41167;SDS011;26906;45.658;9.272;2022-07-29T05:07:47;4.00;;;2.70;;
41167;SDS011;26906;45.658;9.272;2022-07-29T05:10:13;3.58;;;3.03;;
41167;SDS011;26906;45.658;9.272;2022-07-29T05:12:39;4.72;;;3.03;;
41167;SDS011;26906;45.658;9.272;2022-07-29T05:15:05;6.32;;;3.15;;
41167;SDS011;26906;45.658;9.272;2022-07-29T05:17:34;3.63;;;3.00;;
41167;SDS011;26906;45.658;9.272;2022-07-29T05:20:00;4.05;;;2.90;;
41167;SDS011;26906;45.658;9.272;2022-07-29T05:22:27;3.33;;;2.67;;
41167;SDS011;26906;45.658;9.272;2022-07-29T05:24:54;3.60;;;2.70;;
41167;SDS011;26906;45.658;9.272;2022-07-29T05:27:19;4.45;;;2.80;;
41167;SDS011;26906;45.658;9.272;2022-07-29T05:29:45;4.22;;;2.80;;
41167;SDS011;26906;45.658;9.272;2022-07-29T05:32:12;2.90;;;2.63;;
41167;SDS011;26906;45.658;9.272;2022-07-29T05:34:39;4.75;;;2.88;;
41167;SDS011;26906;45.658;9.272;2022-07-29T05:37:06;6.65;;;3.20;;
41167;SDS011;26906;45.658;9.272;2022-07-29T05:39:31;3.08;;;2.80;;
41167;SDS011;26906;45.658;9.272;2022-07-29T05:41:57;8.93;;;2.88;;
41167;SDS011;26906;45.658;9.272;2022-07-29T05:44:23;5.95;;;2.50;;
41167;SDS011;26906;45.658;9.272;2022-07-29T05:46:49;5.75;;;2.00;;
41167;SDS011;26906;45.658;9.272;2022-07-29T05:49:17;4.78;;;2.08;;
41167;SDS011;26906;45.658;9.272;2022-07-29T05:51:43;3.33;;;1.83;;
41167;SDS011;26906;45.658;9.272;2022-07-29T05:54:09;2.13;;;1.88;;
41167;SDS011;26906;45.658;9.272;2022-07-29T05:56:36;2.70;;;2.00;;
41167;SDS011;26906;45.658;9.272;2022-07-29T05:59:02;3.95;;;1.77;;
41167;SDS011;26906;45.658;9.272;2022-07-29T06:01:28;2.58;;;1.67;;
41167;SDS011;26906;45.658;9.272;2022-07-29T06:03:54;4.32;;;1.63;;
41167;SDS011;26906;45.658;9.272;2022-07-29T06:06:21;4.18;;;1.55;;
41167;SDS011;26906;45.658;9.272;2022-07-29T06:08:47;4.22;;;1.90;;
41167;SDS011;26906;45.658;9.272;2022-07-29T06:11:13;1.98;;;1.55;;
41167;SDS011;26906;45.658;9.272;2022-07-29T06:13:38;6.32;;;1.85;;
41167;SDS011;26906;45.658;9.272;2022-07-29T06:16:04;3.30;;;1.35;;
41167;SDS011;26906;45.658;9.272;2022-07-29T06:18:30;3.58;;;1.55;;
41167;SDS011;26906;45.658;9.272;2022-07-29T06:20:56;4.15;;;1.60;;
41167;SDS011;26906;45.658;9.272;2022-07-29T06:23:21;2.83;;;1.52;;
41167;SDS011;26906;45.658;9.272;2022-07-29T06:25:47;5.38;;;1.42;;
41167;SDS011;26906;45.658;9.272;2022-07-29T06:28:13;3.78;;;1.38;;
41167;SDS011;26906;45.658;9.272;2022-07-29T06:30:39;2.03;;;1.23;;
41167;SDS011;26906;45.658;9.272;2022-07-29T06:33:05;1.80;;;1.27;;
41167;SDS011;26906;45.658;9.272;2022-07-29T06:35:33;2.55;;;1.00;;
41167;SDS011;26906;45.658;9.272;2022-07-29T06:38:00;1.48;;;1.23;;
41167;SDS011;26906;45.658;9.272;2022-07-29T06:40:26;2.55;;;1.02;;
41167;SDS011;26906;45.658;9.272;2022-07-29T06:43:11;2.47;;;1.30;;
41167;SDS011;26906;45.658;9.272;2022-07-29T06:45:36;3.67;;;1.10;;
41167;SDS011;26906;45.658;9.272;2022-07-29T06:48:06;3.50;;;1.00;;
41167;SDS011;26906;45.658;9.272;2022-07-29T06:50:32;2.50;;;1.20;;
41167;SDS011;26906;45.658;9.272;2022-07-29T06:52:59;2.38;;;1.30;;
41167;SDS011;26906;45.658;9.272;2022-07-29T06:55:24;2.55;;;1.20;;
41167;SDS011;26906;45.658;9.272;2022-07-29T06:57:50;1.95;;;1.27;;
41167;SDS011;26906;45.658;9.272;2022-07-29T07:00:16;3.70;;;1.30;;
41167;SDS011;26906;45.658;9.272;2022-07-29T07:02:42;1.83;;;1.30;;
41167;SDS011;26906;45.658;9.272;2022-07-29T07:05:08;3.05;;;1.20;;
41167;SDS011;26906;45.658;9.272;2022-07-29T07:07:33;1.75;;;1.15;;
41167;SDS011;26906;45.658;9.272;2022-07-29T07:09:59;2.17;;;1.33;;
41167;SDS011;26906;45.658;9.272;2022-07-29T07:12:25;2.10;;;1.20;;
41167;SDS011;26906;45.658;9.272;2022-07-29T07:14:53;1.35;;;1.10;;
41167;SDS011;26906;45.658;9.272;2022-07-29T07:17:19;1.40;;;1.30;;
41167;SDS011;26906;45.658;9.272;2022-07-29T07:19:45;3.05;;;1.30;;
41167;SDS011;26906;45.658;9.272;2022-07-29T07:22:12;1.10;;;0.82;;
41167;SDS011;26906;45.658;9.272;2022-07-29T07:24:38;1.92;;;1.08;;
41167;SDS011;26906;45.658;9.272;2022-07-29T07:27:04;1.67;;;1.42;;
41167;SDS011;26906;45.658;9.272;2022-07-29T07:30:00;2.00;;;1.00;;
41167;SDS011;26906;45.658;9.272;2022-07-29T07:32:27;1.20;;;1.10;;
41167;SDS011;26906;45.658;9.272;2022-07-29T07:34:53;3.05;;;1.42;;
41167;SDS011;26906;45.658;9.272;2022-07-29T07:37:19;1.70;;;1.20;;
41167;SDS011;26906;45.658;9.272;2022-07-29T07:39:47;3.80;;;1.40;;
41167;SDS011;26906;45.658;9.272;2022-07-29T07:42:16;1.73;;;1.20;;
41167;SDS011;26906;45.658;9.272;2022-07-29T07:44:42;3.53;;;1.40;;
41167;SDS011;26906;45.658;9.272;2022-07-29T07:47:08;2.63;;;1.10;;
41167;SDS011;26906;45.658;9.272;2022-07-29T07:49:34;2.38;;;1.30;;
41167;SDS011;26906;45.658;9.272;2022-07-29T07:52:00;2.22;;;1.23;;
41167;SDS011;26906;45.658;9.272;2022-07-29T07:54:27;3.47;;;1.13;;
41167;SDS011;26906;45.658;9.272;2022-07-29T07:56:54;1.98;;;1.10;;
41167;SDS011;26906;45.658;9.272;2022-07-29T07:59:20;2.35;;;1.15;;
41167;SDS011;26906;45.658;9.272;2022-07-29T08:01:46;2.00;;;1.20;;
41167;SDS011;26906;45.658;9.272;2022-07-29T08:04:11;2.25;;;0.90;;
41167;SDS011;26906;45.658;9.272;2022-07-29T08:06:37;1.38;;;1.08;;
41167;SDS011;26906;45.658;9.272;2022-07-29T08:09:03;3.70;;;1.10;;
41167;SDS011;26906;45.658;9.272;2022-07-29T08:11:35;2.60;;;1.10;;
41167;SDS011;26906;45.658;9.272;2022-07-29T08:14:01;3.22;;;1.30;;
41167;SDS011;26906;45.658;9.272;2022-07-29T08:16:27;2.30;;;1.13;;
41167;SDS011;26906;45.658;9.272;2022-07-29T08:18:53;2.20;;;1.23;;
41167;SDS011;26906;45.658;9.272;2022-07-29T08:21:22;2.17;;;0.93;;
41167;SDS011;26906;45.658;9.272;2022-07-29T08:23:49;1.60;;;1.50;;
41167;SDS011;26906;45.658;9.272;2022-07-29T08:26:18;2.35;;;1.20;;
41167;SDS011;26906;45.658;9.272;2022-07-29T08:28:45;1.15;;;1.02;;
41167;SDS011;26906;45.658;9.272;2022-07-29T08:31:14;2.15;;;1.20;;
41167;SDS011;26906;45.658;9.272;2022-07-29T08:33:40;2.25;;;1.13;;
41167;SDS011;26906;45.658;9.272;2022-07-29T08:36:06;9.77;;;1.90;;
41167;SDS011;26906;45.658;9.272;2022-07-29T08:38:32;4.32;;;1.70;;
41167;SDS011;26906;45.658;9.272;2022-07-29T08:41:00;3.35;;;1.45;;
41167;SDS011;26906;45.658;9.272;2022-07-29T08:43:26;5.35;;;1.50;;
41167;SDS011;26906;45.658;9.272;2022-07-29T08:45:53;4.78;;;1.35;;
41167;SDS011;26906;45.658;9.272;2022-07-29T08:48:19;2.22;;;1.40;;
41167;SDS011;26906;45.658;9.272;2022-07-29T08:50:52;1.35;;;1.20;;
41167;SDS011;26906;45.658;9.272;2022-07-29T08:53:20;2.63;;;1.30;;
41167;SDS011;26906;45.658;9.272;2022-07-29T08:55:48;6.40;;;1.58;;
41167;SDS011;26906;45.658;9.272;2022-07-29T08:58:15;2.33;;;1.35;;
41167;SDS011;26906;45.658;9.272;2022-07-29T09:00:46;3.53;;;1.40;;
41167;SDS011;26906;45.658;9.272;2022-07-29T09:03:18;1.50;;;1.40;;
41167;SDS011;26906;45.658;9.272;2022-07-29T09:05:48;2.22;;;1.40;;
41167;SDS011;26906;45.658;9.272;2022-07-29T09:08:15;3.83;;;1.60;;
41167;SDS011;26906;45.658;9.272;2022-07-29T09:10:42;5.97;;;1.50;;
41167;SDS011;26906;45.658;9.272;2022-07-29T09:13:09;2.70;;;1.50;;
41167;SDS011;26906;45.658;9.272;2022-07-29T09:15:35;2.80;;;1.42;;
41167;SDS011;26906;45.658;9.272;2022-07-29T09:18:02;7.10;;;1.90;;
41167;SDS011;26906;45.658;9.272;2022-07-29T09:20:28;3.78;;;1.73;;
41167;SDS011;26906;45.658;9.272;2022-07-29T09:23:12;5.40;;;1.70;;
41167;SDS011;26906;45.658;9.272;2022-07-29T09:25:39;5.88;;;1.85;;
41167;SDS011;26906;45.658;9.272;2022-07-29T09:28:07;7.68;;;1.90;;
41167;SDS011;26906;45.658;9.272;2022-07-29T09:30:33;4.97;;;1.75;;
41167;SDS011;26906;45.658;9.272;2022-07-29T09:33:00;4.28;;;1.90;;
41167;SDS011;26906;45.658;9.272;2022-07-29T09:35:28;3.15;;;2.05;;
41167;SDS011;26906;45.658;9.272;2022-07-29T09:37:54;1.92;;;1.80;;
41167;SDS011;26906;45.658;9.272;2022-07-29T09:40:25;8.13;;;1.98;;
41167;SDS011;26906;45.658;9.272;2022-07-29T09:42:52;2.92;;;1.70;;
41167;SDS011;26906;45.658;9.272;2022-07-29T09:45:55;4.20;;;2.00;;
41167;SDS011;26906;45.658;9.272;2022-07-29T09:48:15;4.50;;;2.50;;
41167;SDS011;26906;45.658;9.272;2022-07-29T09:50:45;8.20;;;3.17;;
41167;SDS011;26906;45.658;9.272;2022-07-29T09:56:09;3.75;;;2.10;;
41167;SDS011;26906;45.658;9.272;2022-07-29T09:58:35;4.50;;;2.47;;
41167;SDS011;26906;45.658;9.272;2022-07-29T10:01:01;4.10;;;2.17;;
41167;SDS011;26906;45.658;9.272;2022-07-29T10:03:28;7.72;;;3.22;;
41167;SDS011;26906;45.658;9.272;2022-07-29T10:06:07;5.00;;;2.60;;
41167;SDS011;26906;45.658;9.272;2022-07-29T10:08:34;4.10;;;2.20;;
41167;SDS011;26906;45.658;9.272;2022-07-29T10:13:36;4.82;;;2.50;;
41167;SDS011;26906;45.658;9.272;2022-07-29T10:16:03;5.05;;;2.58;;
41167;SDS011;26906;45.658;9.272;2022-07-29T10:18:29;2.50;;;2.13;;
41167;SDS011;26906;45.658;9.272;2022-07-29T10:20:58;3.15;;;2.55;;
41167;SDS011;26906;45.658;9.272;2022-07-29T10:23:26;3.53;;;2.40;;
41167;SDS011;26906;45.658;9.272;2022-07-29T10:25:56;3.63;;;2.20;;
41167;SDS011;26906;45.658;9.272;2022-07-29T10:28:22;6.95;;;2.38;;
41167;SDS011;26906;45.658;9.272;2022-07-29T10:30:50;3.50;;;2.45;;
41167;SDS011;26906;45.658;9.272;2022-07-29T10:44:00;4.20;;;2.53;;
41167;SDS011;26906;45.658;9.272;2022-07-29T10:46:29;2.75;;;2.40;;
41167;SDS011;26906;45.658;9.272;2022-07-29T10:59:44;4.10;;;2.20;;
41167;SDS011;26906;45.658;9.272;2022-07-29T11:05:11;4.20;;;2.72;;
41167;SDS011;26906;45.658;9.272;2022-07-29T11:07:39;5.53;;;2.70;;
41167;SDS011;26906;45.658;9.272;2022-07-29T11:10:25;6.07;;;2.58;;
41167;SDS011;26906;45.658;9.272;2022-07-29T11:12:51;4.55;;;2.55;;
41167;SDS011;26906;45.658;9.272;2022-07-29T11:15:18;4.65;;;2.63;;
41167;SDS011;26906;45.658;9.272;2022-07-29T11:20:39;8.75;;;3.10;;
41167;SDS011;26906;45.658;9.272;2022-07-29T11:31:38;3.92;;;3.05;;
41167;SDS011;26906;45.658;9.272;2022-07-29T11:42:48;5.03;;;3.58;;
41167;SDS011;26906;45.658;9.272;2022-07-29T11:45:05;5.10;;;3.60;;
41167;SDS011;26906;45.658;9.272;2022-07-29T11:47:42;4.38;;;3.45;;
41167;SDS011;26906;45.658;9.272;2022-07-29T11:50:12;6.20;;;3.67;;
41167;SDS011;26906;45.658;9.272;2022-07-29T11:52:41;5.85;;;3.30;;
41167;SDS011;26906;45.658;9.272;2022-07-29T11:55:10;8.20;;;3.85;;
41167;SDS011;26906;45.658;9.272;2022-07-29T11:57:45;4.15;;;3.28;;
41167;SDS011;26906;45.658;9.272;2022-07-29T12:00:13;4.07;;;3.40;;
41167;SDS011;26906;45.658;9.272;2022-07-29T12:03:06;5.07;;;3.75;;
41167;SDS011;26906;45.658;9.272;2022-07-29T12:05:35;6.57;;;3.88;;
41167;SDS011;26906;45.658;9.272;2022-07-29T12:08:08;6.18;;;4.72;;
41167;SDS011;26906;45.658;9.272;2022-07-29T12:10:45;5.82;;;4.82;;
41167;SDS011;26906;45.658;9.272;2022-07-29T12:13:12;6.57;;;4.05;;
41167;SDS011;26906;45.658;9.272;2022-07-29T12:15:39;5.68;;;4.78;;
41167;SDS011;26906;45.658;9.272;2022-07-29T12:18:09;8.52;;;4.00;;
41167;SDS011;26906;45.658;9.272;2022-07-29T12:20:43;5.30;;;4.38;;
41167;SDS011;26906;45.658;9.272;2022-07-29T12:23:09;4.78;;;3.83;;
41167;SDS011;26906;45.658;9.272;2022-07-29T12:25:37;5.93;;;4.13;;
41167;SDS011;26906;45.658;9.272;2022-07-29T12:28:04;8.02;;;3.90;;
41167;SDS011;26906;45.658;9.272;2022-07-29T12:30:40;6.72;;;4.32;;
41167;SDS011;26906;45.658;9.272;2022-07-29T12:33:12;7.40;;;3.90;;
41167;SDS011;26906;45.658;9.272;2022-07-29T12:35:40;5.85;;;4.18;;
41167;SDS011;26906;45.658;9.272;2022-07-29T12:38:11;9.13;;;4.07;;
41167;SDS011;26906;45.658;9.272;2022-07-29T12:40:38;5.25;;;4.28;;
41167;SDS011;26906;45.658;9.272;2022-07-29T12:43:05;6.78;;;4.90;;
41167;SDS011;26906;45.658;9.272;2022-07-29T12:45:44;6.20;;;4.30;;
41167;SDS011;26906;45.658;9.272;2022-07-29T12:48:15;8.38;;;4.75;;
41167;SDS011;26906;45.658;9.272;2022-07-29T12:50:51;8.15;;;4.72;;
41167;SDS011;26906;45.658;9.272;2022-07-29T12:53:19;7.03;;;4.25;;
41167;SDS011;26906;45.658;9.272;2022-07-29T12:55:46;7.18;;;4.00;;
41167;SDS011;26906;45.658;9.272;2022-07-29T13:01:13;6.93;;;5.00;;
41167;SDS011;26906;45.658;9.272;2022-07-29T13:03:51;5.93;;;4.20;;
41167;SDS011;26906;45.658;9.272;2022-07-29T13:09:11;4.97;;;4.13;;
41167;SDS011;26906;45.658;9.272;2022-07-29T13:11:49;11.07;;;5.03;;
41167;SDS011;26906;45.658;9.272;2022-07-29T13:14:32;9.90;;;5.90;;
41167;SDS011;26906;45.658;9.272;2022-07-29T13:17:06;9.93;;;6.18;;
41167;SDS011;26906;45.658;9.272;2022-07-29T13:22:11;9.43;;;4.43;;
41167;SDS011;26906;45.658;9.272;2022-07-29T13:27:18;7.25;;;4.70;;
41167;SDS011;26906;45.658;9.272;2022-07-29T13:29:46;11.40;;;5.30;;
41167;SDS011;26906;45.658;9.272;2022-07-29T13:32:12;6.97;;;4.32;;
41167;SDS011;26906;45.658;9.272;2022-07-29T13:34:39;8.38;;;4.82;;
41167;SDS011;26906;45.658;9.272;2022-07-29T13:37:05;5.78;;;4.90;;
41167;SDS011;26906;45.658;9.272;2022-07-29T13:39:31;7.00;;;4.65;;
41167;SDS011;26906;45.658;9.272;2022-07-29T13:41:57;7.93;;;6.72;;
41167;SDS011;26906;45.658;9.272;2022-07-29T13:44:23;6.40;;;4.30;;
41167;SDS011;26906;45.658;9.272;2022-07-29T13:46:48;9.60;;;4.22;;
41167;SDS011;26906;45.658;9.272;2022-07-29T13:49:21;6.80;;;5.53;;
41167;SDS011;26906;45.658;9.272;2022-07-29T13:51:48;8.30;;;4.40;;
41167;SDS011;26906;45.658;9.272;2022-07-29T13:54:14;7.78;;;4.43;;
41167;SDS011;26906;45.658;9.272;2022-07-29T13:56:40;6.13;;;4.35;;
41167;SDS011;26906;45.658;9.272;2022-07-29T13:59:06;7.43;;;4.25;;
41167;SDS011;26906;45.658;9.272;2022-07-29T14:01:33;5.85;;;3.72;;
41167;SDS011;26906;45.658;9.272;2022-07-29T14:04:00;6.63;;;4.18;;
41167;SDS011;26906;45.658;9.272;2022-07-29T14:06:26;7.20;;;4.13;;
41167;SDS011;26906;45.658;9.272;2022-07-29T14:08:51;8.30;;;4.63;;
41167;SDS011;26906;45.658;9.272;2022-07-29T14:11:17;7.38;;;3.95;;
41167;SDS011;26906;45.658;9.272;2022-07-29T14:13:43;9.75;;;4.60;;
41167;SDS011;26906;45.658;9.272;2022-07-29T14:18:51;8.18;;;4.05;;
41167;SDS011;26906;45.658;9.272;2022-07-29T14:21:17;6.13;;;4.50;;
41167;SDS011;26906;45.658;9.272;2022-07-29T14:23:43;5.57;;;4.03;;
41167;SDS011;26906;45.658;9.272;2022-07-29T14:26:09;6.20;;;4.50;;
41167;SDS011;26906;45.658;9.272;2022-07-29T14:28:35;6.22;;;3.88;;
41167;SDS011;26906;45.658;9.272;2022-07-29T14:31:01;8.48;;;5.00;;
41167;SDS011;26906;45.658;9.272;2022-07-29T14:33:26;7.80;;;4.70;;
41167;SDS011;26906;45.658;9.272;2022-07-29T14:35:52;4.40;;;3.50;;
41167;SDS011;26906;45.658;9.272;2022-07-29T14:38:18;6.53;;;4.10;;
41167;SDS011;26906;45.658;9.272;2022-07-29T14:40:47;7.53;;;3.72;;
41167;SDS011;26906;45.658;9.272;2022-07-29T14:43:16;7.75;;;3.92;;
41167;SDS011;26906;45.658;9.272;2022-07-29T14:45:41;8.90;;;4.38;;
41167;SDS011;26906;45.658;9.272;2022-07-29T14:48:07;8.13;;;3.72;;
41167;SDS011;26906;45.658;9.272;2022-07-29T14:50:33;8.15;;;3.70;;
41167;SDS011;26906;45.658;9.272;2022-07-29T14:52:59;4.53;;;3.78;;
41167;SDS011;26906;45.658;9.272;2022-07-29T14:55:25;5.80;;;3.65;;
41167;SDS011;26906;45.658;9.272;2022-07-29T14:57:51;6.65;;;3.70;;
41167;SDS011;26906;45.658;9.272;2022-07-29T15:00:23;6.30;;;4.28;;
41167;SDS011;26906;45.658;9.272;2022-07-29T15:02:49;7.10;;;4.47;;
41167;SDS011;26906;45.658;9.272;2022-07-29T15:05:15;6.28;;;4.13;;
41167;SDS011;26906;45.658;9.272;2022-07-29T15:07:40;5.03;;;4.18;;
41167;SDS011;26906;45.658;9.272;2022-07-29T15:10:06;4.90;;;4.22;;
41167;SDS011;26906;45.658;9.272;2022-07-29T15:12:32;6.75;;;4.35;;
41167;SDS011;26906;45.658;9.272;2022-07-29T15:14:58;4.75;;;4.18;;
41167;SDS011;26906;45.658;9.272;2022-07-29T15:17:24;7.90;;;3.75;;
41167;SDS011;26906;45.658;9.272;2022-07-29T15:19:50;7.38;;;3.30;;
41167;SDS011;26906;45.658;9.272;2022-07-29T15:22:15;6.15;;;2.88;;
41167;SDS011;26906;45.658;9.272;2022-07-29T15:24:42;3.33;;;2.25;;
41167;SDS011;26906;45.658;9.272;2022-07-29T15:27:08;5.68;;;2.65;;
41167;SDS011;26906;45.658;9.272;2022-07-29T15:29:39;3.40;;;2.10;;
41167;SDS011;26906;45.658;9.272;2022-07-29T15:32:11;5.03;;;2.40;;
41167;SDS011;26906;45.658;9.272;2022-07-29T15:34:37;3.20;;;2.17;;
41167;SDS011;26906;45.658;9.272;2022-07-29T15:37:03;5.80;;;2.55;;
41167;SDS011;26906;45.658;9.272;2022-07-29T15:39:30;4.82;;;2.28;;
41167;SDS011;26906;45.658;9.272;2022-07-29T15:41:55;6.50;;;2.25;;
41167;SDS011;26906;45.658;9.272;2022-07-29T15:44:21;2.25;;;2.05;;
41167;SDS011;26906;45.658;9.272;2022-07-29T15:46:49;3.25;;;2.58;;
41167;SDS011;26906;45.658;9.272;2022-07-29T15:49:33;4.10;;;2.50;;
41167;SDS011;26906;45.658;9.272;2022-07-29T15:52:05;3.03;;;2.70;;
41167;SDS011;26906;45.658;9.272;2022-07-29T15:54:32;4.70;;;3.00;;
41167;SDS011;26906;45.658;9.272;2022-07-29T15:57:03;5.38;;;3.00;;
41167;SDS011;26906;45.658;9.272;2022-07-29T15:59:29;4.85;;;2.80;;
41167;SDS011;26906;45.658;9.272;2022-07-29T16:01:55;9.57;;;3.80;;
41167;SDS011;26906;45.658;9.272;2022-07-29T16:04:21;7.60;;;3.72;;
41167;SDS011;26906;45.658;9.272;2022-07-29T16:06:50;7.45;;;4.05;;
41167;SDS011;26906;45.658;9.272;2022-07-29T16:09:16;6.38;;;4.32;;
41167;SDS011;26906;45.658;9.272;2022-07-29T16:11:42;8.30;;;4.18;;
41167;SDS011;26906;45.658;9.272;2022-07-29T16:14:10;10.70;;;4.25;;
41167;SDS011;26906;45.658;9.272;2022-07-29T16:16:36;13.15;;;5.70;;
41167;SDS011;26906;45.658;9.272;2022-07-29T16:19:03;16.33;;;5.40;;
41167;SDS011;26906;45.658;9.272;2022-07-29T16:21:29;10.40;;;5.28;;
41167;SDS011;26906;45.658;9.272;2022-07-29T16:23:56;10.68;;;3.63;;
41167;SDS011;26906;45.658;9.272;2022-07-29T16:26:23;7.70;;;2.88;;
41167;SDS011;26906;45.658;9.272;2022-07-29T16:28:49;9.18;;;2.95;;
41167;SDS011;26906;45.658;9.272;2022-07-29T16:31:14;8.60;;;3.15;;
41167;SDS011;26906;45.658;9.272;2022-07-29T16:33:40;9.98;;;4.22;;
41167;SDS011;26906;45.658;9.272;2022-07-29T16:36:06;8.05;;;4.90;;
41167;SDS011;26906;45.658;9.272;2022-07-29T16:38:32;8.57;;;5.35;;
41167;SDS011;26906;45.658;9.272;2022-07-29T16:40:58;9.32;;;4.07;;
41167;SDS011;26906;45.658;9.272;2022-07-29T16:43:27;8.23;;;4.45;;
41167;SDS011;26906;45.658;9.272;2022-07-29T16:45:53;9.32;;;3.53;;
41167;SDS011;26906;45.658;9.272;2022-07-29T16:48:18;8.93;;;3.63;;
41167;SDS011;26906;45.658;9.272;2022-07-29T16:50:44;8.20;;;4.05;;
41167;SDS011;26906;45.658;9.272;2022-07-29T16:53:10;9.35;;;4.75;;
41167;SDS011;26906;45.658;9.272;2022-07-29T16:55:36;11.10;;;5.30;;
41167;SDS011;26906;45.658;9.272;2022-07-29T16:58:02;8.18;;;4.35;;
41167;SDS011;26906;45.658;9.272;2022-07-29T17:00:28;8.30;;;4.72;;
41167;SDS011;26906;45.658;9.272;2022-07-29T17:02:53;8.55;;;4.43;;
41167;SDS011;26906;45.658;9.272;2022-07-29T17:05:19;9.07;;;4.38;;
41167;SDS011;26906;45.658;9.272;2022-07-29T17:07:46;6.50;;;5.30;;
41167;SDS011;26906;45.658;9.272;2022-07-29T17:10:12;8.60;;;5.38;;
41167;SDS011;26906;45.658;9.272;2022-07-29T17:12:38;8.98;;;5.50;;
41167;SDS011;26906;45.658;9.272;2022-07-29T17:15:05;11.55;;;5.60;;
41167;SDS011;26906;45.658;9.272;2022-07-29T17:17:33;9.30;;;4.85;;
41167;SDS011;26906;45.658;9.272;2022-07-29T17:19:59;9.35;;;4.40;;
41167;SDS011;26906;45.658;9.272;2022-07-29T17:22:24;7.65;;;4.45;;
41167;SDS011;26906;45.658;9.272;2022-07-29T17:24:51;7.65;;;4.60;;
41167;SDS011;26906;45.658;9.272;2022-07-29T17:27:16;5.63;;;3.72;;
41167;SDS011;26906;45.658;9.272;2022-07-29T17:29:42;6.47;;;3.47;;
41167;SDS011;26906;45.658;9.272;2022-07-29T17:32:09;6.38;;;4.45;;
41167;SDS011;26906;45.658;9.272;2022-07-29T17:34:35;7.82;;;4.70;;
41167;SDS011;26906;45.658;9.272;2022-07-29T17:37:02;6.32;;;3.85;;
41167;SDS011;26906;45.658;9.272;2022-07-29T17:39:29;6.00;;;4.32;;
41167;SDS011;26906;45.658;9.272;2022-07-29T17:41:54;6.88;;;4.40;;
41167;SDS011;26906;45.658;9.272;2022-07-29T17:44:20;6.20;;;4.28;;
41167;SDS011;26906;45.658;9.272;2022-07-29T17:46:46;5.10;;;3.80;;
41167;SDS011;26906;45.658;9.272;2022-07-29T17:49:11;5.15;;;3.40;;
41167;SDS011;26906;45.658;9.272;2022-07-29T17:51:37;4.22;;;3.50;;
41167;SDS011;26906;45.658;9.272;2022-07-29T17:54:03;5.40;;;3.47;;
41167;SDS011;26906;45.658;9.272;2022-07-29T17:56:29;6.35;;;3.58;;
41167;SDS011;26906;45.658;9.272;2022-07-29T17:58:55;4.72;;;3.40;;
41167;SDS011;26906;45.658;9.272;2022-07-29T18:01:21;3.88;;;2.60;;
41167;SDS011;26906;45.658;9.272;2022-07-29T18:03:46;2.72;;;2.47;;
41167;SDS011;26906;45.658;9.272;2022-07-29T18:06:12;4.90;;;2.45;;
41167;SDS011;26906;45.658;9.272;2022-07-29T18:08:38;4.45;;;2.53;;
41167;SDS011;26906;45.658;9.272;2022-07-29T18:13:45;3.53;;;2.22;;
41167;SDS011;26906;45.658;9.272;2022-07-29T18:16:11;3.53;;;2.10;;
41167;SDS011;26906;45.658;9.272;2022-07-29T18:18:38;3.00;;;2.40;;
41167;SDS011;26906;45.658;9.272;2022-07-29T18:21:04;3.85;;;1.88;;
41167;SDS011;26906;45.658;9.272;2022-07-29T18:23:30;3.75;;;2.20;;
41167;SDS011;26906;45.658;9.272;2022-07-29T18:25:56;3.78;;;2.17;;
41167;SDS011;26906;45.658;9.272;2022-07-29T18:28:22;4.68;;;2.10;;
41167;SDS011;26906;45.658;9.272;2022-07-29T18:30:47;2.53;;;2.10;;
41167;SDS011;26906;45.658;9.272;2022-07-29T18:33:13;7.05;;;2.13;;
41167;SDS011;26906;45.658;9.272;2022-07-29T18:35:42;4.75;;;2.22;;
41167;SDS011;26906;45.658;9.272;2022-07-29T18:38:09;2.63;;;2.17;;
41167;SDS011;26906;45.658;9.272;2022-07-29T18:40:34;4.15;;;2.10;;
41167;SDS011;26906;45.658;9.272;2022-07-29T18:43:00;5.80;;;2.47;;
41167;SDS011;26906;45.658;9.272;2022-07-29T18:45:26;3.13;;;2.03;;
41167;SDS011;26906;45.658;9.272;2022-07-29T18:47:51;3.70;;;2.10;;
41167;SDS011;26906;45.658;9.272;2022-07-29T18:50:17;2.90;;;2.53;;
41167;SDS011;26906;45.658;9.272;2022-07-29T18:52:44;2.65;;;2.03;;
41167;SDS011;26906;45.658;9.272;2022-07-29T18:55:10;4.55;;;2.20;;
41167;SDS011;26906;45.658;9.272;2022-07-29T18:57:37;2.38;;;1.60;;
41167;SDS011;26906;45.658;9.272;2022-07-29T19:00:03;3.05;;;2.08;;
41167;SDS011;26906;45.658;9.272;2022-07-29T19:02:29;4.13;;;1.88;;
41167;SDS011;26906;45.658;9.272;2022-07-29T19:04:55;1.80;;;1.70;;
41167;SDS011;26906;45.658;9.272;2022-07-29T19:07:21;2.75;;;1.70;;
41167;SDS011;26906;45.658;9.272;2022-07-29T19:09:49;3.75;;;2.03;;
41167;SDS011;26906;45.658;9.272;2022-07-29T19:12:17;1.58;;;1.40;;
41167;SDS011;26906;45.658;9.272;2022-07-29T19:17:24;2.00;;;1.77;;
41167;SDS011;26906;45.658;9.272;2022-07-29T19:19:50;3.22;;;1.88;;
41167;SDS011;26906;45.658;9.272;2022-07-29T19:22:18;1.90;;;1.60;;
41167;SDS011;26906;45.658;9.272;2022-07-29T19:24:46;3.72;;;1.92;;
41167;SDS011;26906;45.658;9.272;2022-07-29T19:27:12;2.95;;;1.65;;
41167;SDS011;26906;45.658;9.272;2022-07-29T19:29:38;3.95;;;1.65;;
41167;SDS011;26906;45.658;9.272;2022-07-29T19:32:04;2.35;;;2.08;;
41167;SDS011;26906;45.658;9.272;2022-07-29T19:34:30;1.88;;;1.67;;
41167;SDS011;26906;45.658;9.272;2022-07-29T19:36:55;3.17;;;2.00;;
41167;SDS011;26906;45.658;9.272;2022-07-29T19:39:21;3.42;;;1.95;;
41167;SDS011;26906;45.658;9.272;2022-07-29T19:41:47;4.13;;;2.17;;
41167;SDS011;26906;45.658;9.272;2022-07-29T19:44:13;2.72;;;2.10;;
41167;SDS011;26906;45.658;9.272;2022-07-29T19:46:39;3.20;;;2.30;;
41167;SDS011;26906;45.658;9.272;2022-07-29T19:49:05;6.38;;;2.67;;
41167;SDS011;26906;45.658;9.272;2022-07-29T19:51:32;4.45;;;2.30;;
41167;SDS011;26906;45.658;9.272;2022-07-29T19:53:58;4.35;;;2.58;;
41167;SDS011;26906;45.658;9.272;2022-07-29T19:56:24;3.67;;;2.78;;
41167;SDS011;26906;45.658;9.272;2022-07-29T19:58:51;3.60;;;3.00;;
41167;SDS011;26906;45.658;9.272;2022-07-29T20:01:18;3.70;;;2.92;;
41167;SDS011;26906;45.658;9.272;2022-07-29T20:03:44;4.85;;;3.03;;
41167;SDS011;26906;45.658;9.272;2022-07-29T20:06:10;5.60;;;2.70;;
41167;SDS011;26906;45.658;9.272;2022-07-29T20:08:37;3.42;;;3.10;;
41167;SDS011;26906;45.658;9.272;2022-07-29T20:11:03;7.07;;;3.35;;
41167;SDS011;26906;45.658;9.272;2022-07-29T20:13:30;3.47;;;2.83;;
41167;SDS011;26906;45.658;9.272;2022-07-29T20:15:58;6.57;;;3.00;;
41167;SDS011;26906;45.658;9.272;2022-07-29T20:18:24;5.32;;;3.10;;
41167;SDS011;26906;45.658;9.272;2022-07-29T20:20:50;3.45;;;3.10;;
41167;SDS011;26906;45.658;9.272;2022-07-29T20:23:15;3.88;;;3.00;;
41167;SDS011;26906;45.658;9.272;2022-07-29T20:25:43;4.93;;;3.13;;
41167;SDS011;26906;45.658;9.272;2022-07-29T20:28:09;5.45;;;3.05;;
41167;SDS011;26906;45.658;9.272;2022-07-29T20:30:35;4.47;;;3.45;;